Alapaha, GA (31622)

5:10 PM EST on January 20, 2017 (GMT -0500)
Waterford | | Change Station

Elev 361 ft 31.49 °N, 83.46 °W | Updated 1 second ago

Overcast
Overcast
72.9 °F
Feels Like 74 °F
N
0.0
Wind Variable Wind from SSE
Gusts 0.0 mph

Today
High -- | Low -- °F
--% Chance of Precip.
Yesterday
High -- | Low -- °F
Precip. -- in
Pressure 29.86 in
Visibility 10.0 miles
Clouds Scattered Clouds 3500 ft
Mostly Cloudy 4100 ft
Overcast 4700 ft
Heat Index 74 °F
Dew Point 64 °F
Humidity 74%
Rainfall 0.05 in
Snow Depth Not available.
7:31 AM 5:57 PM
Last Quarter, 41% visible
METAR KTMA 202155Z AUTO 13003KT 10SM SCT035 BKN041 OVC047 23/18 A2986 RMK AO2 T02300181
Pressure 29.86 in
Visibility 10.0 miles
Clouds Scattered Clouds 3500 ft
Mostly Cloudy 4100 ft
Overcast 4700 ft
Heat Index 74 °F
Dew Point 64 °F
Humidity 74%
Rainfall 0.05 in
Snow Depth Not available.
7:31 AM 5:57 PM
Last Quarter, 41% visible
METAR KTMA 202155Z AUTO 13003KT 10SM SCT035 BKN041 OVC047 23/18 A2986 RMK AO2 T02300181

Get Your Daily Forecast Email!

Thanks for signing up!

Be on the lookout for a verification email in your inbox.

You'll start receiving the daily forecast at 8 AM.

×

10-Day Weather Forecast

Almanac

Astronomy

Jan. 20, 2017 Rise Set
Actual Time
Civil Twilight
Nautical Twilight
Astronomical Twilight
Moon
Length of Visible Light
Length of Day
Tomorrow will be .
, % of the Moon is Illuminated

Today's Extremes

State Highs State Lows

Community

WunderPhotos

Upload Photos

1,962,540 photos uploaded!

WunderBlog® & News

Nearby

Air Quality

  Air Quality AQ Index Pollutant
Not available.

Snow Depth

Station Depth Elevation

Earthquake Activity

City Distance Mag. Time & Date
Minimum magnitude displayed is 2.5.

Coastal Water Temperatures

Place Temperature

Stations

Nearby Weather Stations

Station Location Temp. Windchill Dew Point Humidity Wind Precip. Elev Updated Type
                   

Watches & Warnings

There are currently no watches in effect.